sensor_id;sensor_type;location;lat;lon;timestamp;P1;durP1;ratioP1;P2;durP2;ratioP2
25365;SDS011;13315;48.274;-1.900;2023-03-16T00:02:03;5.43;;;3.58;;
25365;SDS011;13315;48.274;-1.900;2023-03-16T00:04:30;7.88;;;3.88;;
25365;SDS011;13315;48.274;-1.900;2023-03-16T00:06:56;6.40;;;4.18;;
25365;SDS011;13315;48.274;-1.900;2023-03-16T00:09:23;4.97;;;3.40;;
25365;SDS011;13315;48.274;-1.900;2023-03-16T00:11:55;3.78;;;3.47;;
25365;SDS011;13315;48.274;-1.900;2023-03-16T00:14:22;4.93;;;3.70;;
25365;SDS011;13315;48.274;-1.900;2023-03-16T00:16:48;3.25;;;3.05;;
25365;SDS011;13315;48.274;-1.900;2023-03-16T00:19:14;3.90;;;3.40;;
25365;SDS011;13315;48.274;-1.900;2023-03-16T00:21:40;3.85;;;3.55;;
25365;SDS011;13315;48.274;-1.900;2023-03-16T00:24:06;3.80;;;3.60;;
25365;SDS011;13315;48.274;-1.900;2023-03-16T00:26:33;4.43;;;3.42;;
25365;SDS011;13315;48.274;-1.900;2023-03-16T00:28:59;4.85;;;4.35;;
25365;SDS011;13315;48.274;-1.900;2023-03-16T00:31:25;8.23;;;3.75;;
25365;SDS011;13315;48.274;-1.900;2023-03-16T00:33:52;3.70;;;3.40;;
25365;SDS011;13315;48.274;-1.900;2023-03-16T00:36:18;4.10;;;3.80;;
25365;SDS011;13315;48.274;-1.900;2023-03-16T00:38:44;4.68;;;4.00;;
25365;SDS011;13315;48.274;-1.900;2023-03-16T00:41:11;5.57;;;4.97;;
25365;SDS011;13315;48.274;-1.900;2023-03-16T00:43:39;5.72;;;3.97;;
25365;SDS011;13315;48.274;-1.900;2023-03-16T00:46:06;9.80;;;4.40;;
25365;SDS011;13315;48.274;-1.900;2023-03-16T00:48:33;5.45;;;4.72;;
25365;SDS011;13315;48.274;-1.900;2023-03-16T00:51:00;8.00;;;4.18;;
25365;SDS011;13315;48.274;-1.900;2023-03-16T00:53:28;7.20;;;3.97;;
25365;SDS011;13315;48.274;-1.900;2023-03-16T00:55:55;8.48;;;3.78;;
25365;SDS011;13315;48.274;-1.900;2023-03-16T00:58:22;6.57;;;4.00;;
25365;SDS011;13315;48.274;-1.900;2023-03-16T01:00:48;5.22;;;3.92;;
25365;SDS011;13315;48.274;-1.900;2023-03-16T01:03:17;5.00;;;3.67;;
25365;SDS011;13315;48.274;-1.900;2023-03-16T01:05:43;4.10;;;3.80;;
25365;SDS011;13315;48.274;-1.900;2023-03-16T01:08:09;5.68;;;3.92;;
25365;SDS011;13315;48.274;-1.900;2023-03-16T01:10:35;6.43;;;3.70;;
25365;SDS011;13315;48.274;-1.900;2023-03-16T01:13:02;9.07;;;4.20;;
25365;SDS011;13315;48.274;-1.900;2023-03-16T01:15:29;4.35;;;3.83;;
25365;SDS011;13315;48.274;-1.900;2023-03-16T01:17:55;4.38;;;4.05;;
25365;SDS011;13315;48.274;-1.900;2023-03-16T01:20:22;5.68;;;4.18;;
25365;SDS011;13315;48.274;-1.900;2023-03-16T01:22:48;6.07;;;4.55;;
25365;SDS011;13315;48.274;-1.900;2023-03-16T01:25:14;9.57;;;3.88;;
25365;SDS011;13315;48.274;-1.900;2023-03-16T01:27:40;7.60;;;4.15;;
25365;SDS011;13315;48.274;-1.900;2023-03-16T01:30:07;4.43;;;3.75;;
25365;SDS011;13315;48.274;-1.900;2023-03-16T01:32:36;5.05;;;4.55;;
25365;SDS011;13315;48.274;-1.900;2023-03-16T01:35:02;6.13;;;4.30;;
25365;SDS011;13315;48.274;-1.900;2023-03-16T01:37:29;6.05;;;4.20;;
25365;SDS011;13315;48.274;-1.900;2023-03-16T01:39:55;6.07;;;3.72;;
25365;SDS011;13315;48.274;-1.900;2023-03-16T01:42:21;4.85;;;4.40;;
25365;SDS011;13315;48.274;-1.900;2023-03-16T01:44:55;8.25;;;4.10;;
25365;SDS011;13315;48.274;-1.900;2023-03-16T01:47:25;6.47;;;4.10;;
25365;SDS011;13315;48.274;-1.900;2023-03-16T01:49:52;4.18;;;3.63;;
25365;SDS011;13315;48.274;-1.900;2023-03-16T01:52:29;6.85;;;4.45;;
25365;SDS011;13315;48.274;-1.900;2023-03-16T01:54:58;7.18;;;4.40;;
25365;SDS011;13315;48.274;-1.900;2023-03-16T02:00:02;5.70;;;4.93;;
25365;SDS011;13315;48.274;-1.900;2023-03-16T02:02:34;4.45;;;4.05;;
25365;SDS011;13315;48.274;-1.900;2023-03-16T02:05:03;4.05;;;3.70;;
25365;SDS011;13315;48.274;-1.900;2023-03-16T02:07:32;5.15;;;3.90;;
25365;SDS011;13315;48.274;-1.900;2023-03-16T02:09:59;5.22;;;3.83;;
25365;SDS011;13315;48.274;-1.900;2023-03-16T02:12:26;5.57;;;3.88;;
25365;SDS011;13315;48.274;-1.900;2023-03-16T02:14:53;7.53;;;4.22;;
25365;SDS011;13315;48.274;-1.900;2023-03-16T02:17:23;6.82;;;3.90;;
25365;SDS011;13315;48.274;-1.900;2023-03-16T02:19:52;3.88;;;3.60;;
25365;SDS011;13315;48.274;-1.900;2023-03-16T02:22:22;4.85;;;3.65;;
25365;SDS011;13315;48.274;-1.900;2023-03-16T02:24:49;5.93;;;3.83;;
25365;SDS011;13315;48.274;-1.900;2023-03-16T02:27:19;4.00;;;3.70;;
25365;SDS011;13315;48.274;-1.900;2023-03-16T02:30:05;3.60;;;3.30;;
25365;SDS011;13315;48.274;-1.900;2023-03-16T02:32:32;4.82;;;4.07;;
25365;SDS011;13315;48.274;-1.900;2023-03-16T02:35:00;6.78;;;4.40;;
25365;SDS011;13315;48.274;-1.900;2023-03-16T02:37:27;5.35;;;4.55;;
25365;SDS011;13315;48.274;-1.900;2023-03-16T02:39:53;6.75;;;3.85;;
25365;SDS011;13315;48.274;-1.900;2023-03-16T02:42:20;4.22;;;3.80;;
25365;SDS011;13315;48.274;-1.900;2023-03-16T02:44:49;5.35;;;3.85;;
25365;SDS011;13315;48.274;-1.900;2023-03-16T02:49:43;3.83;;;3.50;;
25365;SDS011;13315;48.274;-1.900;2023-03-16T02:52:10;8.70;;;3.63;;
25365;SDS011;13315;48.274;-1.900;2023-03-16T02:54:36;4.78;;;3.90;;
25365;SDS011;13315;48.274;-1.900;2023-03-16T02:57:02;5.07;;;3.60;;
25365;SDS011;13315;48.274;-1.900;2023-03-16T02:59:29;5.57;;;4.05;;
25365;SDS011;13315;48.274;-1.900;2023-03-16T03:01:55;7.00;;;4.05;;
25365;SDS011;13315;48.274;-1.900;2023-03-16T03:04:21;4.57;;;3.90;;
25365;SDS011;13315;48.274;-1.900;2023-03-16T03:06:48;5.72;;;4.30;;
25365;SDS011;13315;48.274;-1.900;2023-03-16T03:09:15;5.88;;;3.60;;
25365;SDS011;13315;48.274;-1.900;2023-03-16T03:11:42;5.38;;;3.88;;
25365;SDS011;13315;48.274;-1.900;2023-03-16T03:14:08;3.90;;;3.60;;
25365;SDS011;13315;48.274;-1.900;2023-03-16T03:16:34;6.60;;;4.55;;
25365;SDS011;13315;48.274;-1.900;2023-03-16T03:19:00;4.28;;;3.85;;
25365;SDS011;13315;48.274;-1.900;2023-03-16T03:21:26;5.03;;;4.25;;
25365;SDS011;13315;48.274;-1.900;2023-03-16T03:23:53;3.60;;;3.30;;
25365;SDS011;13315;48.274;-1.900;2023-03-16T03:26:19;5.05;;;4.10;;
25365;SDS011;13315;48.274;-1.900;2023-03-16T03:28:46;5.15;;;3.97;;
25365;SDS011;13315;48.274;-1.900;2023-03-16T03:31:15;3.63;;;3.42;;
25365;SDS011;13315;48.274;-1.900;2023-03-16T03:33:41;5.88;;;3.30;;
25365;SDS011;13315;48.274;-1.900;2023-03-16T03:36:08;9.55;;;3.72;;
25365;SDS011;13315;48.274;-1.900;2023-03-16T03:38:35;4.20;;;3.90;;
25365;SDS011;13315;48.274;-1.900;2023-03-16T03:41:01;5.03;;;3.60;;
25365;SDS011;13315;48.274;-1.900;2023-03-16T03:43:28;4.78;;;3.70;;
25365;SDS011;13315;48.274;-1.900;2023-03-16T03:45:57;3.83;;;3.53;;
25365;SDS011;13315;48.274;-1.900;2023-03-16T03:48:24;4.13;;;3.55;;
25365;SDS011;13315;48.274;-1.900;2023-03-16T03:50:50;4.38;;;3.67;;
25365;SDS011;13315;48.274;-1.900;2023-03-16T03:53:16;3.97;;;3.60;;
25365;SDS011;13315;48.274;-1.900;2023-03-16T03:55:42;7.80;;;3.85;;
25365;SDS011;13315;48.274;-1.900;2023-03-16T03:58:09;5.03;;;4.10;;
25365;SDS011;13315;48.274;-1.900;2023-03-16T04:00:36;6.45;;;4.32;;
25365;SDS011;13315;48.274;-1.900;2023-03-16T04:03:02;4.50;;;4.10;;
25365;SDS011;13315;48.274;-1.900;2023-03-16T04:05:29;7.10;;;3.80;;
25365;SDS011;13315;48.274;-1.900;2023-03-16T04:07:55;5.95;;;4.00;;
25365;SDS011;13315;48.274;-1.900;2023-03-16T04:10:25;4.40;;;3.50;;
25365;SDS011;13315;48.274;-1.900;2023-03-16T04:12:51;6.75;;;3.97;;
25365;SDS011;13315;48.274;-1.900;2023-03-16T04:15:17;7.43;;;4.22;;
25365;SDS011;13315;48.274;-1.900;2023-03-16T04:17:43;4.18;;;3.40;;
25365;SDS011;13315;48.274;-1.900;2023-03-16T04:20:10;4.22;;;3.70;;
25365;SDS011;13315;48.274;-1.900;2023-03-16T04:22:42;4.63;;;3.80;;
25365;SDS011;13315;48.274;-1.900;2023-03-16T04:25:09;4.57;;;4.22;;
25365;SDS011;13315;48.274;-1.900;2023-03-16T04:27:35;5.13;;;3.50;;
25365;SDS011;13315;48.274;-1.900;2023-03-16T04:30:05;5.65;;;3.42;;
25365;SDS011;13315;48.274;-1.900;2023-03-16T04:32:32;4.60;;;4.22;;
25365;SDS011;13315;48.274;-1.900;2023-03-16T04:34:58;7.70;;;3.90;;
25365;SDS011;13315;48.274;-1.900;2023-03-16T04:37:24;5.93;;;4.55;;
25365;SDS011;13315;48.274;-1.900;2023-03-16T04:39:50;4.40;;;4.00;;
25365;SDS011;13315;48.274;-1.900;2023-03-16T04:42:16;5.60;;;4.30;;
25365;SDS011;13315;48.274;-1.900;2023-03-16T04:44:42;4.25;;;3.78;;
25365;SDS011;13315;48.274;-1.900;2023-03-16T04:47:09;3.58;;;3.38;;
25365;SDS011;13315;48.274;-1.900;2023-03-16T04:49:35;7.22;;;4.97;;
25365;SDS011;13315;48.274;-1.900;2023-03-16T04:52:01;4.18;;;3.80;;
25365;SDS011;13315;48.274;-1.900;2023-03-16T04:54:28;4.53;;;4.10;;
25365;SDS011;13315;48.274;-1.900;2023-03-16T04:56:55;5.13;;;4.10;;
25365;SDS011;13315;48.274;-1.900;2023-03-16T04:59:21;5.90;;;3.90;;
25365;SDS011;13315;48.274;-1.900;2023-03-16T05:01:47;3.80;;;3.58;;
25365;SDS011;13315;48.274;-1.900;2023-03-16T05:04:14;5.72;;;4.07;;
25365;SDS011;13315;48.274;-1.900;2023-03-16T05:06:40;4.97;;;4.10;;
25365;SDS011;13315;48.274;-1.900;2023-03-16T05:09:06;4.78;;;4.28;;
25365;SDS011;13315;48.274;-1.900;2023-03-16T05:11:36;7.03;;;4.32;;
25365;SDS011;13315;48.274;-1.900;2023-03-16T05:14:02;5.80;;;4.47;;
25365;SDS011;13315;48.274;-1.900;2023-03-16T05:16:28;4.93;;;3.83;;
25365;SDS011;13315;48.274;-1.900;2023-03-16T05:18:58;4.50;;;4.10;;
25365;SDS011;13315;48.274;-1.900;2023-03-16T05:21:25;5.35;;;3.85;;
25365;SDS011;13315;48.274;-1.900;2023-03-16T05:23:51;7.10;;;4.10;;
25365;SDS011;13315;48.274;-1.900;2023-03-16T05:26:17;4.35;;;3.85;;
25365;SDS011;13315;48.274;-1.900;2023-03-16T05:28:44;5.93;;;4.47;;
25365;SDS011;13315;48.274;-1.900;2023-03-16T05:31:10;4.05;;;3.75;;
25365;SDS011;13315;48.274;-1.900;2023-03-16T05:33:36;5.70;;;4.63;;
25365;SDS011;13315;48.274;-1.900;2023-03-16T05:36:03;7.35;;;4.60;;
25365;SDS011;13315;48.274;-1.900;2023-03-16T05:38:29;6.43;;;4.07;;
25365;SDS011;13315;48.274;-1.900;2023-03-16T05:40:56;4.10;;;3.80;;
25365;SDS011;13315;48.274;-1.900;2023-03-16T05:43:25;5.93;;;4.18;;
25365;SDS011;13315;48.274;-1.900;2023-03-16T05:45:53;7.72;;;3.85;;
25365;SDS011;13315;48.274;-1.900;2023-03-16T05:48:19;5.90;;;3.80;;
25365;SDS011;13315;48.274;-1.900;2023-03-16T05:50:46;5.63;;;4.30;;
25365;SDS011;13315;48.274;-1.900;2023-03-16T05:53:12;4.05;;;3.75;;
25365;SDS011;13315;48.274;-1.900;2023-03-16T05:55:39;4.43;;;3.83;;
25365;SDS011;13315;48.274;-1.900;2023-03-16T05:58:05;10.10;;;3.63;;
25365;SDS011;13315;48.274;-1.900;2023-03-16T06:00:31;7.60;;;4.15;;
25365;SDS011;13315;48.274;-1.900;2023-03-16T06:02:58;4.13;;;3.80;;
25365;SDS011;13315;48.274;-1.900;2023-03-16T06:05:24;4.80;;;4.22;;
25365;SDS011;13315;48.274;-1.900;2023-03-16T06:07:52;4.60;;;4.10;;
25365;SDS011;13315;48.274;-1.900;2023-03-16T06:10:18;4.32;;;3.80;;
25365;SDS011;13315;48.274;-1.900;2023-03-16T06:12:44;5.15;;;3.80;;
25365;SDS011;13315;48.274;-1.900;2023-03-16T06:15:11;5.05;;;3.80;;
25365;SDS011;13315;48.274;-1.900;2023-03-16T06:17:38;4.60;;;3.60;;
25365;SDS011;13315;48.274;-1.900;2023-03-16T06:20:05;5.55;;;4.20;;
25365;SDS011;13315;48.274;-1.900;2023-03-16T06:22:36;4.07;;;3.72;;
25365;SDS011;13315;48.274;-1.900;2023-03-16T06:25:02;4.60;;;4.20;;
25365;SDS011;13315;48.274;-1.900;2023-03-16T06:27:28;6.40;;;4.70;;
25365;SDS011;13315;48.274;-1.900;2023-03-16T06:29:55;6.90;;;4.47;;
25365;SDS011;13315;48.274;-1.900;2023-03-16T06:32:21;4.82;;;4.32;;
25365;SDS011;13315;48.274;-1.900;2023-03-16T06:34:47;8.23;;;3.90;;
25365;SDS011;13315;48.274;-1.900;2023-03-16T06:37:13;4.47;;;4.07;;
25365;SDS011;13315;48.274;-1.900;2023-03-16T06:39:39;4.28;;;3.67;;
25365;SDS011;13315;48.274;-1.900;2023-03-16T06:42:05;4.00;;;3.63;;
25365;SDS011;13315;48.274;-1.900;2023-03-16T06:44:31;4.22;;;3.60;;
25365;SDS011;13315;48.274;-1.900;2023-03-16T06:46:57;8.48;;;3.90;;
25365;SDS011;13315;48.274;-1.900;2023-03-16T06:49:24;6.10;;;4.10;;
25365;SDS011;13315;48.274;-1.900;2023-03-16T06:51:50;4.20;;;3.80;;
25365;SDS011;13315;48.274;-1.900;2023-03-16T06:54:16;3.75;;;3.42;;
25365;SDS011;13315;48.274;-1.900;2023-03-16T06:56:42;4.47;;;3.63;;
25365;SDS011;13315;48.274;-1.900;2023-03-16T06:59:08;3.88;;;3.58;;
25365;SDS011;13315;48.274;-1.900;2023-03-16T07:01:35;4.00;;;3.70;;
25365;SDS011;13315;48.274;-1.900;2023-03-16T07:04:01;3.97;;;3.65;;
25365;SDS011;13315;48.274;-1.900;2023-03-16T07:06:27;4.25;;;3.85;;
25365;SDS011;13315;48.274;-1.900;2023-03-16T07:08:53;4.22;;;3.47;;
25365;SDS011;13315;48.274;-1.900;2023-03-16T07:11:19;3.70;;;3.22;;
25365;SDS011;13315;48.274;-1.900;2023-03-16T07:13:45;6.88;;;3.13;;
25365;SDS011;13315;48.274;-1.900;2023-03-16T07:16:11;3.85;;;3.20;;
25365;SDS011;13315;48.274;-1.900;2023-03-16T07:18:37;3.67;;;2.92;;
25365;SDS011;13315;48.274;-1.900;2023-03-16T07:21:04;3.33;;;3.03;;
25365;SDS011;13315;48.274;-1.900;2023-03-16T07:23:30;4.00;;;3.45;;
25365;SDS011;13315;48.274;-1.900;2023-03-16T07:25:56;3.63;;;3.10;;
25365;SDS011;13315;48.274;-1.900;2023-03-16T07:28:22;5.55;;;3.17;;
25365;SDS011;13315;48.274;-1.900;2023-03-16T07:30:49;4.60;;;3.10;;
25365;SDS011;13315;48.274;-1.900;2023-03-16T07:33:16;3.28;;;3.08;;
25365;SDS011;13315;48.274;-1.900;2023-03-16T07:35:42;5.72;;;3.10;;
25365;SDS011;13315;48.274;-1.900;2023-03-16T07:38:08;3.67;;;2.90;;
25365;SDS011;13315;48.274;-1.900;2023-03-16T07:40:36;3.25;;;2.90;;
25365;SDS011;13315;48.274;-1.900;2023-03-16T07:43:03;3.47;;;3.00;;
25365;SDS011;13315;48.274;-1.900;2023-03-16T07:45:30;3.15;;;2.95;;
25365;SDS011;13315;48.274;-1.900;2023-03-16T07:47:56;3.90;;;2.75;;
25365;SDS011;13315;48.274;-1.900;2023-03-16T07:50:22;3.05;;;2.78;;
25365;SDS011;13315;48.274;-1.900;2023-03-16T07:52:48;3.85;;;3.03;;
25365;SDS011;13315;48.274;-1.900;2023-03-16T07:55:14;4.80;;;3.17;;
25365;SDS011;13315;48.274;-1.900;2023-03-16T07:57:40;3.58;;;3.10;;
25365;SDS011;13315;48.274;-1.900;2023-03-16T08:00:11;7.07;;;2.90;;
25365;SDS011;13315;48.274;-1.900;2023-03-16T08:02:38;4.45;;;2.63;;
25365;SDS011;13315;48.274;-1.900;2023-03-16T08:05:04;2.70;;;2.50;;
25365;SDS011;13315;48.274;-1.900;2023-03-16T08:07:30;7.88;;;3.33;;
25365;SDS011;13315;48.274;-1.900;2023-03-16T08:09:56;3.65;;;3.05;;
25365;SDS011;13315;48.274;-1.900;2023-03-16T08:12:23;3.88;;;2.83;;
25365;SDS011;13315;48.274;-1.900;2023-03-16T08:14:49;2.58;;;2.38;;
25365;SDS011;13315;48.274;-1.900;2023-03-16T08:17:15;3.08;;;2.70;;
25365;SDS011;13315;48.274;-1.900;2023-03-16T08:19:41;6.53;;;2.83;;
25365;SDS011;13315;48.274;-1.900;2023-03-16T08:22:07;5.05;;;2.80;;
25365;SDS011;13315;48.274;-1.900;2023-03-16T08:24:33;5.70;;;2.92;;
25365;SDS011;13315;48.274;-1.900;2023-03-16T08:26:59;3.33;;;2.70;;
25365;SDS011;13315;48.274;-1.900;2023-03-16T08:29:25;2.75;;;2.45;;
25365;SDS011;13315;48.274;-1.900;2023-03-16T08:31:52;5.60;;;2.70;;
25365;SDS011;13315;48.274;-1.900;2023-03-16T08:34:20;3.33;;;2.70;;
25365;SDS011;13315;48.274;-1.900;2023-03-16T08:36:46;3.00;;;2.80;;
25365;SDS011;13315;48.274;-1.900;2023-03-16T08:39:13;2.70;;;2.50;;
25365;SDS011;13315;48.274;-1.900;2023-03-16T08:41:40;2.55;;;2.35;;
25365;SDS011;13315;48.274;-1.900;2023-03-16T08:44:07;3.97;;;2.50;;
25365;SDS011;13315;48.274;-1.900;2023-03-16T08:46:33;4.60;;;2.47;;
25365;SDS011;13315;48.274;-1.900;2023-03-16T08:48:59;3.85;;;2.75;;
25365;SDS011;13315;48.274;-1.900;2023-03-16T08:51:26;3.50;;;2.45;;
25365;SDS011;13315;48.274;-1.900;2023-03-16T08:53:53;3.35;;;2.30;;
25365;SDS011;13315;48.274;-1.900;2023-03-16T08:56:20;2.45;;;2.28;;
25365;SDS011;13315;48.274;-1.900;2023-03-16T08:58:46;4.22;;;2.50;;
25365;SDS011;13315;48.274;-1.900;2023-03-16T09:01:13;3.10;;;2.45;;
25365;SDS011;13315;48.274;-1.900;2023-03-16T09:03:40;2.55;;;2.35;;
25365;SDS011;13315;48.274;-1.900;2023-03-16T09:06:07;2.70;;;2.50;;
25365;SDS011;13315;48.274;-1.900;2023-03-16T09:08:34;4.10;;;2.40;;
25365;SDS011;13315;48.274;-1.900;2023-03-16T09:11:04;5.35;;;2.40;;
25365;SDS011;13315;48.274;-1.900;2023-03-16T09:13:32;3.40;;;2.20;;
25365;SDS011;13315;48.274;-1.900;2023-03-16T09:15:58;3.97;;;2.30;;
25365;SDS011;13315;48.274;-1.900;2023-03-16T09:18:25;2.40;;;2.20;;
25365;SDS011;13315;48.274;-1.900;2023-03-16T09:20:52;6.00;;;1.95;;
25365;SDS011;13315;48.274;-1.900;2023-03-16T09:23:22;4.55;;;2.70;;
25365;SDS011;13315;48.274;-1.900;2023-03-16T09:25:50;4.22;;;2.40;;
25365;SDS011;13315;48.274;-1.900;2023-03-16T09:28:17;4.03;;;2.20;;
25365;SDS011;13315;48.274;-1.900;2023-03-16T09:30:43;3.28;;;1.98;;
25365;SDS011;13315;48.274;-1.900;2023-03-16T09:33:09;3.40;;;2.25;;
25365;SDS011;13315;48.274;-1.900;2023-03-16T09:35:36;3.47;;;2.40;;
25365;SDS011;13315;48.274;-1.900;2023-03-16T09:38:03;2.45;;;2.00;;
25365;SDS011;13315;48.274;-1.900;2023-03-16T09:40:29;7.25;;;2.50;;
25365;SDS011;13315;48.274;-1.900;2023-03-16T09:48:18;2.05;;;1.95;;
25365;SDS011;13315;48.274;-1.900;2023-03-16T09:50:45;4.18;;;2.38;;
25365;SDS011;13315;48.274;-1.900;2023-03-16T09:53:15;2.67;;;2.10;;
25365;SDS011;13315;48.274;-1.900;2023-03-16T09:55:44;3.80;;;2.42;;
25365;SDS011;13315;48.274;-1.900;2023-03-16T09:58:15;4.07;;;2.20;;
25365;SDS011;13315;48.274;-1.900;2023-03-16T10:00:46;3.15;;;2.10;;
25365;SDS011;13315;48.274;-1.900;2023-03-16T10:06:02;6.07;;;2.00;;
25365;SDS011;13315;48.274;-1.900;2023-03-16T10:08:34;4.50;;;2.38;;
25365;SDS011;13315;48.274;-1.900;2023-03-16T10:16:17;3.05;;;1.95;;
25365;SDS011;13315;48.274;-1.900;2023-03-16T10:18:46;2.95;;;1.80;;
25365;SDS011;13315;48.274;-1.900;2023-03-16T10:21:13;2.47;;;2.00;;
25365;SDS011;13315;48.274;-1.900;2023-03-16T10:23:41;2.00;;;1.90;;
25365;SDS011;13315;48.274;-1.900;2023-03-16T10:26:12;2.58;;;2.13;;
25365;SDS011;13315;48.274;-1.900;2023-03-16T10:28:38;2.05;;;1.95;;
25365;SDS011;13315;48.274;-1.900;2023-03-16T10:31:07;3.42;;;2.00;;
25365;SDS011;13315;48.274;-1.900;2023-03-16T10:33:34;1.85;;;1.75;;
25365;SDS011;13315;48.274;-1.900;2023-03-16T10:38:48;2.45;;;2.10;;
25365;SDS011;13315;48.274;-1.900;2023-03-16T10:44:28;2.35;;;2.10;;
25365;SDS011;13315;48.274;-1.900;2023-03-16T10:46:43;5.22;;;2.13;;
25365;SDS011;13315;48.274;-1.900;2023-03-16T10:49:25;1.70;;;1.60;;
25365;SDS011;13315;48.274;-1.900;2023-03-16T10:51:58;7.85;;;2.00;;
25365;SDS011;13315;48.274;-1.900;2023-03-16T10:56:51;2.17;;;1.98;;
25365;SDS011;13315;48.274;-1.900;2023-03-16T11:01:47;4.10;;;2.38;;
25365;SDS011;13315;48.274;-1.900;2023-03-16T11:04:14;5.97;;;2.33;;
25365;SDS011;13315;48.274;-1.900;2023-03-16T11:06:54;2.97;;;2.57;;
25365;SDS011;13315;48.274;-1.900;2023-03-16T11:09:25;5.13;;;3.08;;
25365;SDS011;13315;48.274;-1.900;2023-03-16T11:11:52;8.07;;;4.10;;
25365;SDS011;13315;48.274;-1.900;2023-03-16T11:14:22;4.78;;;2.78;;
25365;SDS011;13315;48.274;-1.900;2023-03-16T11:16:52;6.57;;;4.68;;
25365;SDS011;13315;48.274;-1.900;2023-03-16T11:19:28;4.13;;;2.70;;
25365;SDS011;13315;48.274;-1.900;2023-03-16T11:22:03;4.13;;;2.65;;
25365;SDS011;13315;48.274;-1.900;2023-03-16T11:27:03;6.53;;;3.35;;
25365;SDS011;13315;48.274;-1.900;2023-03-16T11:32:05;4.88;;;2.50;;
25365;SDS011;13315;48.274;-1.900;2023-03-16T11:34:35;3.58;;;2.47;;
25365;SDS011;13315;48.274;-1.900;2023-03-16T11:42:37;4.35;;;2.55;;
25365;SDS011;13315;48.274;-1.900;2023-03-16T11:50:40;3.83;;;2.63;;
25365;SDS011;13315;48.274;-1.900;2023-03-16T11:53:29;5.68;;;3.17;;
25365;SDS011;13315;48.274;-1.900;2023-03-16T12:14:26;3.22;;;2.13;;
25365;SDS011;13315;48.274;-1.900;2023-03-16T12:17:06;7.13;;;2.53;;
25365;SDS011;13315;48.274;-1.900;2023-03-16T12:19:43;8.35;;;2.50;;
25365;SDS011;13315;48.274;-1.900;2023-03-16T12:24:40;4.60;;;2.55;;
25365;SDS011;13315;48.274;-1.900;2023-03-16T12:27:10;4.68;;;2.42;;
25365;SDS011;13315;48.274;-1.900;2023-03-16T12:29:40;5.22;;;2.67;;
25365;SDS011;13315;48.274;-1.900;2023-03-16T12:32:16;2.28;;;2.08;;
25365;SDS011;13315;48.274;-1.900;2023-03-16T12:35:02;5.43;;;2.10;;
25365;SDS011;13315;48.274;-1.900;2023-03-16T12:45:02;2.25;;;2.05;;
25365;SDS011;13315;48.274;-1.900;2023-03-16T12:50:02;3.63;;;2.25;;
25365;SDS011;13315;48.274;-1.900;2023-03-16T12:52:37;2.47;;;2.25;;
25365;SDS011;13315;48.274;-1.900;2023-03-16T12:55:11;3.22;;;2.10;;
25365;SDS011;13315;48.274;-1.900;2023-03-16T12:57:40;2.63;;;2.10;;
25365;SDS011;13315;48.274;-1.900;2023-03-16T13:00:09;2.75;;;2.22;;
25365;SDS011;13315;48.274;-1.900;2023-03-16T13:02:36;4.30;;;2.10;;
25365;SDS011;13315;48.274;-1.900;2023-03-16T13:05:07;1.73;;;1.63;;
25365;SDS011;13315;48.274;-1.900;2023-03-16T13:07:34;5.25;;;2.00;;
25365;SDS011;13315;48.274;-1.900;2023-03-16T13:10:05;4.22;;;1.70;;
25365;SDS011;13315;48.274;-1.900;2023-03-16T13:12:35;4.63;;;1.80;;
25365;SDS011;13315;48.274;-1.900;2023-03-16T13:15:44;2.78;;;1.83;;
25365;SDS011;13315;48.274;-1.900;2023-03-16T13:18:02;2.60;;;1.80;;
25365;SDS011;13315;48.274;-1.900;2023-03-16T13:20:32;3.80;;;1.73;;
25365;SDS011;13315;48.274;-1.900;2023-03-16T13:23:07;3.20;;;1.83;;
25365;SDS011;13315;48.274;-1.900;2023-03-16T13:25:38;2.60;;;1.50;;
25365;SDS011;13315;48.274;-1.900;2023-03-16T13:28:04;1.77;;;1.58;;
25365;SDS011;13315;48.274;-1.900;2023-03-16T13:30:32;1.73;;;1.60;;
25365;SDS011;13315;48.274;-1.900;2023-03-16T13:32:59;1.70;;;1.60;;
25365;SDS011;13315;48.274;-1.900;2023-03-16T13:35:28;5.38;;;1.77;;
25365;SDS011;13315;48.274;-1.900;2023-03-16T13:38:01;1.88;;;1.65;;
25365;SDS011;13315;48.274;-1.900;2023-03-16T13:40:29;2.80;;;1.60;;
25365;SDS011;13315;48.274;-1.900;2023-03-16T13:42:56;1.67;;;1.27;;
25365;SDS011;13315;48.274;-1.900;2023-03-16T13:45:32;2.55;;;1.42;;
25365;SDS011;13315;48.274;-1.900;2023-03-16T13:47:59;2.33;;;1.30;;
25365;SDS011;13315;48.274;-1.900;2023-03-16T13:50:32;1.88;;;1.30;;
25365;SDS011;13315;48.274;-1.900;2023-03-16T13:53:03;1.60;;;1.50;;
25365;SDS011;13315;48.274;-1.900;2023-03-16T13:55:31;2.40;;;1.75;;
25365;SDS011;13315;48.274;-1.900;2023-03-16T13:57:58;1.98;;;1.35;;
25365;SDS011;13315;48.274;-1.900;2023-03-16T14:00:26;2.97;;;1.30;;
25365;SDS011;13315;48.274;-1.900;2023-03-16T14:02:57;2.97;;;1.40;;
25365;SDS011;13315;48.274;-1.900;2023-03-16T14:05:24;3.35;;;1.60;;
25365;SDS011;13315;48.274;-1.900;2023-03-16T14:07:51;2.87;;;1.43;;
25365;SDS011;13315;48.274;-1.900;2023-03-16T14:10:18;2.55;;;1.30;;
25365;SDS011;13315;48.274;-1.900;2023-03-16T14:15:17;1.30;;;1.17;;
25365;SDS011;13315;48.274;-1.900;2023-03-16T14:17:44;3.05;;;1.42;;
25365;SDS011;13315;48.274;-1.900;2023-03-16T14:20:16;3.35;;;1.38;;
25365;SDS011;13315;48.274;-1.900;2023-03-16T14:22:43;1.50;;;1.35;;
25365;SDS011;13315;48.274;-1.900;2023-03-16T14:25:09;3.25;;;2.00;;
25365;SDS011;13315;48.274;-1.900;2023-03-16T14:27:42;3.25;;;1.40;;
25365;SDS011;13315;48.274;-1.900;2023-03-16T14:30:14;2.42;;;1.40;;
25365;SDS011;13315;48.274;-1.900;2023-03-16T14:32:41;2.67;;;1.55;;
25365;SDS011;13315;48.274;-1.900;2023-03-16T14:35:14;2.60;;;1.30;;
25365;SDS011;13315;48.274;-1.900;2023-03-16T14:37:41;2.22;;;1.60;;
25365;SDS011;13315;48.274;-1.900;2023-03-16T14:40:20;3.00;;;1.88;;
25365;SDS011;13315;48.274;-1.900;2023-03-16T14:42:46;4.38;;;2.03;;
25365;SDS011;13315;48.274;-1.900;2023-03-16T14:45:13;2.90;;;1.88;;
25365;SDS011;13315;48.274;-1.900;2023-03-16T14:47:41;2.33;;;1.63;;
25365;SDS011;13315;48.274;-1.900;2023-03-16T14:53:03;5.32;;;1.60;;
25365;SDS011;13315;48.274;-1.900;2023-03-16T14:55:29;2.50;;;1.40;;
25365;SDS011;13315;48.274;-1.900;2023-03-16T14:57:55;3.50;;;1.80;;
25365;SDS011;13315;48.274;-1.900;2023-03-16T15:00:22;2.75;;;1.70;;
25365;SDS011;13315;48.274;-1.900;2023-03-16T15:03:11;3.70;;;1.52;;
25365;SDS011;13315;48.274;-1.900;2023-03-16T15:05:40;1.75;;;1.63;;
25365;SDS011;13315;48.274;-1.900;2023-03-16T15:08:10;3.55;;;1.35;;
25365;SDS011;13315;48.274;-1.900;2023-03-16T15:10:37;3.85;;;1.52;;
25365;SDS011;13315;48.274;-1.900;2023-03-16T15:13:13;2.92;;;1.50;;
25365;SDS011;13315;48.274;-1.900;2023-03-16T15:15:58;1.90;;;1.35;;
25365;SDS011;13315;48.274;-1.900;2023-03-16T15:18:24;2.22;;;1.30;;
25365;SDS011;13315;48.274;-1.900;2023-03-16T15:20:51;3.90;;;1.33;;
25365;SDS011;13315;48.274;-1.900;2023-03-16T15:23:18;4.38;;;1.55;;
25365;SDS011;13315;48.274;-1.900;2023-03-16T15:25:45;2.35;;;1.30;;
25365;SDS011;13315;48.274;-1.900;2023-03-16T15:28:16;4.63;;;1.75;;
25365;SDS011;13315;48.274;-1.900;2023-03-16T15:30:43;4.78;;;2.10;;
25365;SDS011;13315;48.274;-1.900;2023-03-16T15:33:10;1.88;;;1.35;;
25365;SDS011;13315;48.274;-1.900;2023-03-16T15:35:37;1.83;;;1.35;;
25365;SDS011;13315;48.274;-1.900;2023-03-16T15:38:05;2.60;;;1.52;;
25365;SDS011;13315;48.274;-1.900;2023-03-16T15:40:33;3.20;;;1.67;;
25365;SDS011;13315;48.274;-1.900;2023-03-16T15:43:00;5.45;;;1.63;;
25365;SDS011;13315;48.274;-1.900;2023-03-16T15:45:26;4.25;;;1.95;;
25365;SDS011;13315;48.274;-1.900;2023-03-16T15:47:52;3.40;;;1.73;;
25365;SDS011;13315;48.274;-1.900;2023-03-16T15:50:20;2.58;;;2.00;;
25365;SDS011;13315;48.274;-1.900;2023-03-16T15:52:48;3.45;;;1.92;;
25365;SDS011;13315;48.274;-1.900;2023-03-16T15:55:16;4.40;;;1.80;;
25365;SDS011;13315;48.274;-1.900;2023-03-16T15:57:44;4.55;;;1.63;;
25365;SDS011;13315;48.274;-1.900;2023-03-16T16:00:18;3.35;;;1.55;;